Gold Bar, WA (98251)

11:13 AM PST on February 10, 2016 (GMT -0800)
GBNT_Rainbow Mine | | Change Station
CLOSE
Current Station
Personal Weather Station
Location: Gold Bar, WA
Elevation: 482 ft
Nearby Weather Stations

Elev 482 ft 47.85 °N, 121.64 °W | Updated 3 minutes ago

Overcast
Overcast
50.1 °F
Feels Like 50.1 °F
N
0.0
Wind Variable Wind from North
Gusts 0.0 mph

Today
High -- | Low -- °F
--% Chance of Precip.
Yesterday
High -- | Low -- °F
Precip. -- in
Pressure 30.20 in
Visibility 5.0 miles
Clouds Scattered Clouds 4500 ft
Mostly Cloudy 5000 ft
Overcast 7000 ft
Dew Point 47 °F
Humidity 90%
Rainfall 0.00 in
Snow Depth Not available.
7:21 AM 5:20 PM
Waxing Crescent, 6% visible
METAR KPAE 101853Z 19015KT 5SM -RA SCT045 BKN050 OVC070 10/07 A3020 RMK AO2 SLP226 P0004 T01000072
Pressure 30.20 in
Visibility 5.0 miles
Clouds Scattered Clouds 4500 ft
Mostly Cloudy 5000 ft
Overcast 7000 ft
Dew Point 47 °F
Humidity 90%
Rainfall 0.00 in
Snow Depth Not available.
7:21 AM 5:20 PM
Waxing Crescent, 6% visible
METAR KPAE 101853Z 19015KT 5SM -RA SCT045 BKN050 OVC070 10/07 A3020 RMK AO2 SLP226 P0004 T01000072

10-Day Weather Forecast

Almanac

Astronomy

Feb. 10, 2016 Rise Set
Actual Time
Civil Twilight
Nautical Twilight
Astronomical Twilight
Moon
Length of Visible Light
Length of Day
Tomorrow will be .
, % of the Moon is Illuminated

Today's Extremes

State Highs State Lows

Community

WunderPhotos

Upload Photos

1,891,922 photos uploaded!

WunderBlog® & News

Nearby

Air Quality

  Air Quality AQ Index Pollutant
Not available.

Snow Depth

Station Depth Elevation

Earthquake Activity

City Distance Mag. Time & Date
Minimum magnitude displayed is 2.5.

Coastal Water Temperatures

Place Temperature

Stations

Nearby Weather Stations

Station Location Temp. Windchill Dew Point Humidity Wind Precip. Elev Updated Type
                   

Watches & Warnings

There are currently no watches in effect.